createdAt,value
2022-08-10T00:04:02.071Z,89.90
2022-08-10T00:09:07.445Z,92.17
2022-08-10T00:14:12.418Z,93.57
2022-08-10T00:19:19.946Z,95.43
2022-08-10T00:24:24.870Z,97.46
2022-08-10T00:29:29.767Z,98.93
2022-08-10T00:34:37.589Z,100.00
2022-08-10T00:39:42.581Z,100.00
2022-08-10T00:44:51.090Z,100.00
2022-08-10T00:49:58.739Z,100.00
2022-08-10T00:55:05.214Z,100.00
2022-08-10T01:00:11.904Z,100.00
2022-08-10T01:05:20.695Z,100.00
2022-08-10T01:10:36.907Z,100.00
2022-08-10T01:15:55.722Z,100.00
2022-08-10T01:21:28.356Z,100.00
2022-08-10T01:27:10.067Z,100.00
2022-08-10T01:32:18.001Z,100.00
2022-08-10T01:37:27.232Z,100.00
2022-08-10T01:42:35.895Z,100.00
2022-08-10T01:47:57.976Z,100.00
2022-08-10T01:53:07.917Z,100.00
2022-08-10T01:58:14.588Z,100.00
2022-08-10T02:03:25.455Z,100.00
2022-08-10T02:08:33.888Z,100.00
2022-08-10T02:19:27.954Z,100.00
2022-08-10T02:24:33.965Z,100.00
2022-08-10T02:29:42.275Z,100.00
2022-08-10T02:34:51.973Z,100.00
2022-08-10T02:39:57.219Z,100.00
2022-08-10T02:45:22.200Z,100.00
2022-08-10T02:50:38.630Z,100.00
2022-08-10T02:55:49.343Z,100.00
2022-08-10T03:00:58.551Z,100.00
2022-08-10T03:06:12.219Z,100.00
2022-08-10T03:12:35.081Z,100.00
2022-08-10T03:16:57.393Z,100.00
2022-08-10T03:22:05.958Z,100.00
2022-08-10T03:27:12.028Z,100.00
2022-08-10T03:32:17.364Z,100.00
2022-08-10T03:37:24.922Z,100.00
2022-08-10T03:42:31.436Z,100.00
2022-08-10T03:47:39.651Z,100.00
2022-08-10T03:52:48.178Z,100.00
2022-08-10T03:57:53.897Z,100.00
2022-08-10T04:03:00.828Z,100.00
2022-08-10T04:08:08.777Z,100.00
2022-08-10T04:13:13.660Z,100.00
2022-08-10T04:18:18.643Z,100.00
2022-08-10T04:23:28.334Z,100.00
2022-08-10T04:28:34.160Z,100.00
2022-08-10T04:33:44.074Z,100.00
2022-08-10T04:38:52.806Z,100.00
2022-08-10T04:43:57.885Z,100.00
2022-08-10T04:49:02.792Z,100.00
2022-08-10T04:54:15.820Z,100.00
2022-08-10T04:59:20.806Z,100.00
2022-08-10T05:04:34.790Z,100.00
2022-08-10T05:10:02.275Z,100.00
2022-08-10T05:15:13.673Z,100.00
2022-08-10T05:20:19.275Z,100.00
2022-08-10T05:25:27.794Z,100.00
2022-08-10T05:30:34.369Z,100.00
2022-08-10T05:35:56.602Z,100.00
2022-08-10T05:41:08.709Z,100.00
2022-08-10T05:46:16.948Z,100.00
2022-08-10T05:51:30.273Z,100.00
2022-08-10T05:56:53.185Z,100.00
2022-08-10T06:02:30.934Z,100.00
2022-08-10T06:07:35.361Z,100.00
2022-08-10T06:12:55.280Z,100.00
2022-08-10T06:18:03.022Z,100.00
2022-08-10T06:23:09.837Z,100.00
2022-08-10T06:28:19.746Z,100.00
2022-08-10T06:33:26.925Z,100.00
2022-08-10T06:38:35.289Z,100.00
2022-08-10T06:43:48.398Z,100.00
2022-08-10T06:48:55.990Z,100.00
2022-08-10T06:54:05.135Z,100.00
2022-08-10T06:59:21.665Z,100.00
2022-08-10T07:04:32.609Z,100.00
2022-08-10T07:09:40.479Z,100.00
2022-08-10T07:14:50.370Z,100.00
2022-08-10T07:20:00.861Z,100.00
2022-08-10T07:25:08.748Z,100.00
2022-08-10T07:30:17.497Z,100.00
2022-08-10T07:35:24.624Z,100.00
2022-08-10T07:40:29.928Z,100.00
2022-08-10T07:45:40.562Z,100.00
2022-08-10T07:50:46.546Z,100.00
2022-08-10T07:56:05.593Z,100.00
2022-08-10T08:01:22.941Z,100.00
2022-08-10T08:06:28.882Z,100.00
2022-08-10T08:11:36.771Z,100.00
2022-08-10T08:16:49.202Z,100.00
2022-08-10T08:24:07.958Z,100.00
2022-08-10T08:27:21.195Z,100.00
2022-08-10T08:32:30.444Z,100.00
2022-08-10T08:38:32.297Z,100.00
2022-08-10T08:43:31.927Z,99.08
2022-08-10T08:48:57.795Z,97.45
2022-08-10T08:54:18.182Z,93.40
2022-08-10T08:59:38.545Z,88.33
2022-08-10T09:05:03.907Z,86.31
2022-08-10T09:10:22.035Z,82.50
2022-08-10T09:15:40.427Z,80.75
2022-08-10T09:20:52.803Z,75.46
2022-08-10T09:26:04.741Z,75.88
2022-08-10T09:31:21.976Z,74.00
2022-08-10T09:36:40.000Z,68.60
2022-08-10T09:41:57.608Z,65.64
2022-08-10T09:47:17.113Z,62.05
2022-08-10T09:52:33.102Z,61.71
2022-08-10T09:57:46.516Z,62.22
2022-08-10T10:03:04.873Z,57.93
2022-08-10T10:08:26.486Z,56.48
2022-08-10T10:14:01.608Z,56.99
2022-08-10T10:19:18.265Z,54.29
2022-08-10T10:24:39.458Z,51.99
2022-08-10T10:29:56.748Z,53.82
2022-08-10T10:35:08.768Z,52.74
2022-08-10T10:40:18.675Z,50.70
2022-08-10T10:45:31.766Z,50.48
2022-08-10T10:50:44.217Z,48.32
2022-08-10T10:56:14.574Z,47.34
2022-08-10T11:01:31.606Z,46.69
2022-08-10T11:06:51.485Z,46.10
2022-08-10T11:12:04.993Z,45.77
2022-08-10T11:17:17.554Z,45.85
2022-08-10T11:22:30.324Z,46.19
2022-08-10T11:27:50.820Z,43.70
2022-08-10T11:33:10.544Z,44.18
2022-08-10T11:38:34.435Z,43.11
2022-08-10T11:43:54.832Z,41.94
2022-08-10T11:49:06.828Z,42.70
2022-08-10T11:54:17.458Z,43.21
2022-08-10T11:59:40.101Z,40.74
2022-08-10T12:04:52.015Z,39.97
2022-08-10T12:10:09.417Z,39.96
2022-08-10T12:15:26.162Z,38.63
2022-08-10T12:20:35.968Z,39.46
2022-08-10T12:25:56.841Z,40.27
2022-08-10T12:31:09.407Z,39.72
2022-08-10T12:36:22.892Z,39.96
2022-08-10T12:41:44.377Z,39.25
2022-08-10T12:47:01.571Z,38.07
2022-08-10T12:52:22.409Z,36.95
2022-08-10T12:57:29.424Z,37.92
2022-08-10T13:02:45.235Z,36.13
2022-08-10T13:08:26.556Z,37.39
2022-08-10T13:13:36.571Z,36.50
2022-08-10T13:18:48.981Z,36.81
2022-08-10T13:24:04.469Z,36.98
2022-08-10T13:29:24.402Z,36.87
2022-08-10T13:34:42.333Z,35.21
2022-08-10T13:39:59.108Z,35.58
2022-08-10T13:45:12.013Z,34.75
2022-08-10T13:50:33.387Z,34.63
2022-08-10T13:55:48.697Z,34.44
2022-08-10T14:01:02.491Z,35.01
2022-08-10T14:06:15.545Z,33.54
2022-08-10T14:11:24.111Z,33.94
2022-08-10T14:16:30.933Z,34.06
2022-08-10T14:21:43.253Z,33.84
2022-08-10T14:26:50.154Z,35.02
2022-08-10T14:32:01.892Z,35.29
2022-08-10T14:37:12.921Z,35.18
2022-08-10T14:42:27.511Z,34.47
2022-08-10T14:48:02.086Z,34.80
2022-08-10T14:53:10.273Z,34.88
2022-08-10T14:58:23.070Z,34.93
2022-08-10T15:03:58.915Z,34.69
2022-08-10T15:09:05.524Z,34.20
2022-08-10T15:14:41.163Z,34.07
2022-08-10T15:20:02.380Z,33.89
2022-08-10T15:25:19.353Z,33.00
2022-08-10T15:30:34.974Z,33.06
2022-08-10T15:35:54.580Z,33.06
2022-08-10T15:41:07.838Z,31.60
2022-08-10T15:46:22.068Z,32.41
2022-08-10T15:51:53.425Z,31.39
2022-08-10T15:57:05.638Z,31.23
2022-08-10T16:02:17.533Z,30.93
2022-08-10T16:07:45.885Z,30.96
2022-08-10T16:13:01.743Z,29.77
2022-08-10T16:18:11.531Z,30.35
2022-08-10T16:23:25.998Z,30.44
2022-08-10T16:28:38.783Z,29.75
2022-08-10T16:33:53.801Z,30.25
2022-08-10T16:39:01.395Z,30.34
2022-08-10T16:44:13.284Z,31.11
2022-08-10T16:49:20.932Z,31.55
2022-08-10T16:54:28.205Z,31.81
2022-08-10T16:59:39.479Z,31.88
2022-08-10T17:04:47.329Z,31.71
2022-08-10T17:09:54.083Z,31.35
2022-08-10T17:15:09.978Z,31.61
2022-08-10T17:20:31.726Z,31.43
2022-08-10T17:25:45.910Z,31.58
2022-08-10T17:31:03.443Z,31.78
2022-08-10T17:36:09.680Z,31.79
2022-08-10T17:41:16.551Z,32.30
2022-08-10T17:46:27.955Z,32.12
2022-08-10T17:51:34.324Z,32.54
2022-08-10T17:56:40.285Z,32.85
2022-08-10T18:01:58.822Z,33.33
2022-08-10T18:07:08.419Z,33.92
2022-08-10T18:12:17.829Z,34.25
2022-08-10T18:17:38.486Z,34.83
2022-08-10T18:22:48.124Z,35.87
2022-08-10T18:28:03.833Z,36.21
2022-08-10T18:33:17.582Z,37.08
2022-08-10T18:38:24.741Z,36.98
2022-08-10T18:44:05.868Z,38.33
2022-08-10T18:49:09.584Z,38.71
2022-08-10T18:54:34.511Z,38.83
2022-08-10T19:00:09.381Z,40.38
2022-08-10T19:05:32.120Z,41.00
2022-08-10T19:10:43.832Z,40.05
2022-08-10T19:15:59.334Z,40.74
2022-08-10T19:21:16.141Z,41.29
2022-08-10T19:26:41.942Z,41.69
2022-08-10T19:31:57.063Z,41.84
2022-08-10T19:37:15.293Z,42.15
2022-08-10T19:42:31.480Z,42.25
2022-08-10T19:47:52.062Z,42.74
2022-08-10T19:53:09.539Z,42.92
2022-08-10T19:58:22.613Z,43.87
2022-08-10T20:03:35.199Z,44.01
2022-08-10T20:08:50.139Z,44.51
2022-08-10T20:14:03.287Z,44.67
2022-08-10T20:19:14.415Z,44.43
2022-08-10T20:24:31.880Z,45.01
2022-08-10T20:29:57.636Z,45.62
2022-08-10T20:35:10.834Z,45.86
2022-08-10T20:40:26.343Z,46.44
2022-08-10T20:45:52.109Z,46.75
2022-08-10T20:51:05.337Z,46.56
2022-08-10T20:56:20.221Z,46.91
2022-08-10T21:02:05.945Z,47.07
2022-08-10T21:07:28.385Z,47.44
2022-08-10T21:12:58.682Z,47.97
2022-08-10T21:18:28.109Z,48.70
2022-08-10T21:23:40.078Z,48.20
2022-08-10T21:29:11.430Z,49.23
2022-08-10T21:34:54.464Z,49.93
2022-08-10T21:46:20.667Z,50.38
2022-08-10T21:52:02.253Z,51.31
2022-08-10T21:57:28.126Z,51.02
2022-08-10T22:03:05.964Z,51.77
2022-08-10T22:08:26.785Z,51.56
2022-08-10T22:13:46.691Z,51.86
2022-08-10T22:19:16.562Z,53.17
2022-08-10T22:24:42.292Z,54.00
2022-08-10T22:30:06.632Z,55.01
2022-08-10T22:31:25.014Z,50.72
2022-08-10T22:35:55.066Z,57.35
2022-08-10T22:41:24.163Z,57.92
2022-08-10T22:46:46.203Z,59.88
2022-08-10T22:51:59.435Z,60.43
2022-08-10T22:57:18.438Z,61.64
2022-08-10T23:02:33.810Z,63.23
2022-08-10T23:07:50.431Z,63.64
2022-08-10T23:13:00.925Z,65.36
2022-08-10T23:18:22.361Z,67.39
2022-08-10T23:23:31.987Z,69.56
2022-08-10T23:29:03.273Z,70.86
2022-08-10T23:34:05.947Z,72.24
2022-08-10T23:39:26.163Z,74.45
2022-08-10T23:44:39.042Z,75.07
2022-08-10T23:49:45.174Z,77.45
2022-08-10T23:55:00.233Z,79.64
